sensor_id;sensor_type;location;lat;lon;timestamp;P1;durP1;ratioP1;P2;durP2;ratioP2
42134;SDS011;28312;43.460;11.810;2024-02-23T00:01:45;6.55;;;2.42;;
42134;SDS011;28312;43.460;11.810;2024-02-23T00:05:50;3.33;;;1.90;;
42134;SDS011;28312;43.460;11.810;2024-02-23T00:09:54;7.00;;;2.33;;
42134;SDS011;28312;43.460;11.810;2024-02-23T00:13:57;6.57;;;1.85;;
42134;SDS011;28312;43.460;11.810;2024-02-23T00:18:01;5.32;;;2.20;;
42134;SDS011;28312;43.460;11.810;2024-02-23T00:22:06;5.93;;;2.10;;
42134;SDS011;28312;43.460;11.810;2024-02-23T00:26:11;5.82;;;1.88;;
42134;SDS011;28312;43.460;11.810;2024-02-23T00:30:15;5.30;;;2.05;;
42134;SDS011;28312;43.460;11.810;2024-02-23T00:34:18;4.70;;;2.03;;
42134;SDS011;28312;43.460;11.810;2024-02-23T00:38:22;4.10;;;1.90;;
42134;SDS011;28312;43.460;11.810;2024-02-23T00:42:26;5.75;;;1.95;;
42134;SDS011;28312;43.460;11.810;2024-02-23T00:46:30;5.60;;;2.25;;
42134;SDS011;28312;43.460;11.810;2024-02-23T00:50:33;4.72;;;2.42;;
42134;SDS011;28312;43.460;11.810;2024-02-23T00:54:37;4.18;;;1.63;;
42134;SDS011;28312;43.460;11.810;2024-02-23T00:58:41;2.60;;;1.42;;
42134;SDS011;28312;43.460;11.810;2024-02-23T01:02:45;4.88;;;1.55;;
42134;SDS011;28312;43.460;11.810;2024-02-23T01:06:48;5.05;;;2.00;;
42134;SDS011;28312;43.460;11.810;2024-02-23T01:10:52;2.45;;;1.58;;
42134;SDS011;28312;43.460;11.810;2024-02-23T01:14:56;3.42;;;2.00;;
42134;SDS011;28312;43.460;11.810;2024-02-23T01:19:04;3.15;;;1.80;;
42134;SDS011;28312;43.460;11.810;2024-02-23T01:23:07;2.67;;;1.65;;
42134;SDS011;28312;43.460;11.810;2024-02-23T01:27:11;4.97;;;1.67;;
42134;SDS011;28312;43.460;11.810;2024-02-23T01:31:15;3.97;;;2.03;;
42134;SDS011;28312;43.460;11.810;2024-02-23T01:35:19;4.63;;;1.45;;
42134;SDS011;28312;43.460;11.810;2024-02-23T01:39:23;3.58;;;1.70;;
42134;SDS011;28312;43.460;11.810;2024-02-23T01:43:27;4.45;;;1.55;;
42134;SDS011;28312;43.460;11.810;2024-02-23T01:47:31;1.40;;;1.02;;
42134;SDS011;28312;43.460;11.810;2024-02-23T01:51:34;2.47;;;1.77;;
42134;SDS011;28312;43.460;11.810;2024-02-23T01:55:42;2.35;;;1.02;;
42134;SDS011;28312;43.460;11.810;2024-02-23T01:59:48;3.85;;;1.40;;
42134;SDS011;28312;43.460;11.810;2024-02-23T02:03:53;2.67;;;1.40;;
42134;SDS011;28312;43.460;11.810;2024-02-23T02:07:57;2.65;;;1.35;;
42134;SDS011;28312;43.460;11.810;2024-02-23T02:12:04;3.75;;;1.67;;
42134;SDS011;28312;43.460;11.810;2024-02-23T02:16:08;2.42;;;1.30;;
42134;SDS011;28312;43.460;11.810;2024-02-23T02:20:12;2.35;;;1.27;;
42134;SDS011;28312;43.460;11.810;2024-02-23T02:24:16;2.88;;;1.27;;
42134;SDS011;28312;43.460;11.810;2024-02-23T02:28:20;5.60;;;1.67;;
42134;SDS011;28312;43.460;11.810;2024-02-23T02:32:25;3.35;;;1.50;;
42134;SDS011;28312;43.460;11.810;2024-02-23T02:36:30;1.67;;;1.08;;
42134;SDS011;28312;43.460;11.810;2024-02-23T02:40:33;3.92;;;1.50;;
42134;SDS011;28312;43.460;11.810;2024-02-23T02:44:37;5.03;;;1.75;;
42134;SDS011;28312;43.460;11.810;2024-02-23T02:48:40;5.07;;;1.27;;
42134;SDS011;28312;43.460;11.810;2024-02-23T02:52:45;2.60;;;1.55;;
42134;SDS011;28312;43.460;11.810;2024-02-23T02:56:49;4.45;;;1.67;;
42134;SDS011;28312;43.460;11.810;2024-02-23T03:00:53;2.35;;;1.33;;
42134;SDS011;28312;43.460;11.810;2024-02-23T03:04:57;6.57;;;1.65;;
42134;SDS011;28312;43.460;11.810;2024-02-23T03:09:00;2.70;;;1.52;;
42134;SDS011;28312;43.460;11.810;2024-02-23T03:13:05;3.03;;;1.20;;
42134;SDS011;28312;43.460;11.810;2024-02-23T03:17:08;5.57;;;1.65;;
42134;SDS011;28312;43.460;11.810;2024-02-23T03:21:12;3.75;;;1.75;;
42134;SDS011;28312;43.460;11.810;2024-02-23T03:25:18;3.08;;;1.40;;
42134;SDS011;28312;43.460;11.810;2024-02-23T03:29:21;4.38;;;1.50;;
42134;SDS011;28312;43.460;11.810;2024-02-23T03:33:32;5.45;;;1.92;;
42134;SDS011;28312;43.460;11.810;2024-02-23T03:37:36;2.10;;;1.42;;
42134;SDS011;28312;43.460;11.810;2024-02-23T03:41:40;2.67;;;1.27;;
42134;SDS011;28312;43.460;11.810;2024-02-23T03:45:43;3.42;;;1.50;;
42134;SDS011;28312;43.460;11.810;2024-02-23T03:49:47;6.40;;;1.77;;
42134;SDS011;28312;43.460;11.810;2024-02-23T03:53:50;2.78;;;1.73;;
42134;SDS011;28312;43.460;11.810;2024-02-23T03:57:54;5.28;;;1.70;;
42134;SDS011;28312;43.460;11.810;2024-02-23T04:01:57;5.53;;;1.77;;
42134;SDS011;28312;43.460;11.810;2024-02-23T04:06:01;4.72;;;1.70;;
42134;SDS011;28312;43.460;11.810;2024-02-23T04:10:05;2.97;;;1.38;;
42134;SDS011;28312;43.460;11.810;2024-02-23T04:14:09;4.88;;;2.28;;
42134;SDS011;28312;43.460;11.810;2024-02-23T04:18:13;3.25;;;1.85;;
42134;SDS011;28312;43.460;11.810;2024-02-23T04:22:16;5.32;;;2.70;;
42134;SDS011;28312;43.460;11.810;2024-02-23T04:26:20;4.50;;;2.40;;
42134;SDS011;28312;43.460;11.810;2024-02-23T04:30:23;4.35;;;2.30;;
42134;SDS011;28312;43.460;11.810;2024-02-23T04:34:27;3.00;;;1.85;;
42134;SDS011;28312;43.460;11.810;2024-02-23T04:38:31;5.25;;;1.80;;
42134;SDS011;28312;43.460;11.810;2024-02-23T04:42:36;4.70;;;1.70;;
42134;SDS011;28312;43.460;11.810;2024-02-23T04:46:40;4.05;;;1.80;;
42134;SDS011;28312;43.460;11.810;2024-02-23T04:50:43;2.40;;;1.55;;
42134;SDS011;28312;43.460;11.810;2024-02-23T04:54:47;6.43;;;1.67;;
42134;SDS011;28312;43.460;11.810;2024-02-23T04:58:50;4.25;;;2.05;;
42134;SDS011;28312;43.460;11.810;2024-02-23T05:02:54;4.45;;;2.42;;
42134;SDS011;28312;43.460;11.810;2024-02-23T05:06:58;5.82;;;2.50;;
42134;SDS011;28312;43.460;11.810;2024-02-23T05:11:01;3.85;;;1.92;;
42134;SDS011;28312;43.460;11.810;2024-02-23T05:15:05;3.67;;;1.58;;
42134;SDS011;28312;43.460;11.810;2024-02-23T05:19:10;5.53;;;2.90;;
42134;SDS011;28312;43.460;11.810;2024-02-23T05:23:14;3.13;;;2.20;;
42134;SDS011;28312;43.460;11.810;2024-02-23T05:27:18;3.55;;;2.67;;
42134;SDS011;28312;43.460;11.810;2024-02-23T05:31:24;5.20;;;2.90;;
42134;SDS011;28312;43.460;11.810;2024-02-23T05:35:49;8.68;;;3.42;;
42134;SDS011;28312;43.460;11.810;2024-02-23T05:39:53;4.88;;;2.95;;
42134;SDS011;28312;43.460;11.810;2024-02-23T05:43:56;4.32;;;2.95;;
42134;SDS011;28312;43.460;11.810;2024-02-23T05:48:00;6.10;;;3.35;;
42134;SDS011;28312;43.460;11.810;2024-02-23T05:52:04;5.22;;;3.83;;
42134;SDS011;28312;43.460;11.810;2024-02-23T05:56:07;4.50;;;2.90;;
42134;SDS011;28312;43.460;11.810;2024-02-23T06:00:11;6.25;;;3.38;;
42134;SDS011;28312;43.460;11.810;2024-02-23T06:04:18;5.35;;;3.63;;
42134;SDS011;28312;43.460;11.810;2024-02-23T06:08:23;4.20;;;3.30;;
42134;SDS011;28312;43.460;11.810;2024-02-23T06:12:27;6.25;;;3.97;;
42134;SDS011;28312;43.460;11.810;2024-02-23T06:16:30;6.32;;;3.30;;
42134;SDS011;28312;43.460;11.810;2024-02-23T06:20:34;6.00;;;4.38;;
42134;SDS011;28312;43.460;11.810;2024-02-23T06:24:37;7.63;;;3.92;;
42134;SDS011;28312;43.460;11.810;2024-02-23T06:28:41;7.47;;;4.30;;
42134;SDS011;28312;43.460;11.810;2024-02-23T06:32:46;5.25;;;4.00;;
42134;SDS011;28312;43.460;11.810;2024-02-23T06:36:49;5.75;;;3.83;;
42134;SDS011;28312;43.460;11.810;2024-02-23T06:40:53;7.43;;;4.13;;
42134;SDS011;28312;43.460;11.810;2024-02-23T06:45:01;5.53;;;3.80;;
42134;SDS011;28312;43.460;11.810;2024-02-23T06:49:04;6.93;;;3.58;;
42134;SDS011;28312;43.460;11.810;2024-02-23T06:53:10;7.80;;;4.22;;
42134;SDS011;28312;43.460;11.810;2024-02-23T06:57:13;9.10;;;3.95;;
42134;SDS011;28312;43.460;11.810;2024-02-23T07:01:17;6.10;;;3.58;;
42134;SDS011;28312;43.460;11.810;2024-02-23T07:05:24;6.30;;;3.25;;
42134;SDS011;28312;43.460;11.810;2024-02-23T07:09:28;6.57;;;4.07;;
42134;SDS011;28312;43.460;11.810;2024-02-23T07:13:33;11.55;;;4.15;;
42134;SDS011;28312;43.460;11.810;2024-02-23T07:17:36;7.85;;;4.32;;
42134;SDS011;28312;43.460;11.810;2024-02-23T07:21:40;6.28;;;3.67;;
42134;SDS011;28312;43.460;11.810;2024-02-23T07:25:46;14.27;;;4.82;;
42134;SDS011;28312;43.460;11.810;2024-02-23T07:29:50;11.07;;;4.20;;
42134;SDS011;28312;43.460;11.810;2024-02-23T07:33:54;5.65;;;4.00;;
42134;SDS011;28312;43.460;11.810;2024-02-23T07:37:58;6.60;;;4.20;;
42134;SDS011;28312;43.460;11.810;2024-02-23T07:42:02;8.48;;;4.03;;
42134;SDS011;28312;43.460;11.810;2024-02-23T07:46:06;6.95;;;3.80;;
42134;SDS011;28312;43.460;11.810;2024-02-23T07:50:12;4.47;;;3.20;;
42134;SDS011;28312;43.460;11.810;2024-02-23T07:54:16;5.82;;;3.58;;
42134;SDS011;28312;43.460;11.810;2024-02-23T07:58:19;7.22;;;4.13;;
42134;SDS011;28312;43.460;11.810;2024-02-23T08:02:24;6.30;;;4.05;;
42134;SDS011;28312;43.460;11.810;2024-02-23T08:06:28;5.55;;;4.03;;
42134;SDS011;28312;43.460;11.810;2024-02-23T08:10:33;7.75;;;4.18;;
42134;SDS011;28312;43.460;11.810;2024-02-23T08:14:37;11.30;;;3.97;;
42134;SDS011;28312;43.460;11.810;2024-02-23T08:18:41;6.90;;;3.53;;
42134;SDS011;28312;43.460;11.810;2024-02-23T08:22:44;9.77;;;3.88;;
42134;SDS011;28312;43.460;11.810;2024-02-23T08:26:48;9.15;;;4.25;;
42134;SDS011;28312;43.460;11.810;2024-02-23T08:30:51;9.00;;;3.75;;
42134;SDS011;28312;43.460;11.810;2024-02-23T08:34:55;8.98;;;3.97;;
42134;SDS011;28312;43.460;11.810;2024-02-23T08:43:06;10.10;;;4.78;;
42134;SDS011;28312;43.460;11.810;2024-02-23T08:47:09;8.50;;;4.43;;
42134;SDS011;28312;43.460;11.810;2024-02-23T08:51:13;10.40;;;4.57;;
42134;SDS011;28312;43.460;11.810;2024-02-23T08:55:16;4.90;;;3.58;;
42134;SDS011;28312;43.460;11.810;2024-02-23T08:59:20;7.05;;;5.07;;
42134;SDS011;28312;43.460;11.810;2024-02-23T09:03:24;5.95;;;3.92;;
42134;SDS011;28312;43.460;11.810;2024-02-23T09:07:28;11.50;;;5.03;;
42134;SDS011;28312;43.460;11.810;2024-02-23T09:11:33;7.00;;;3.65;;
42134;SDS011;28312;43.460;11.810;2024-02-23T09:15:37;9.80;;;4.25;;
42134;SDS011;28312;43.460;11.810;2024-02-23T09:19:40;7.20;;;3.60;;
42134;SDS011;28312;43.460;11.810;2024-02-23T09:23:44;9.85;;;4.63;;
42134;SDS011;28312;43.460;11.810;2024-02-23T09:27:47;11.73;;;4.43;;
42134;SDS011;28312;43.460;11.810;2024-02-23T09:31:51;9.02;;;4.03;;
42134;SDS011;28312;43.460;11.810;2024-02-23T09:35:56;9.25;;;4.47;;
42134;SDS011;28312;43.460;11.810;2024-02-23T09:40:00;7.78;;;3.67;;
42134;SDS011;28312;43.460;11.810;2024-02-23T09:44:03;14.75;;;4.55;;
42134;SDS011;28312;43.460;11.810;2024-02-23T09:48:10;10.32;;;3.75;;
42134;SDS011;28312;43.460;11.810;2024-02-23T09:52:14;7.85;;;3.90;;
42134;SDS011;28312;43.460;11.810;2024-02-23T09:56:18;6.85;;;3.78;;
42134;SDS011;28312;43.460;11.810;2024-02-23T10:00:24;12.57;;;4.82;;
42134;SDS011;28312;43.460;11.810;2024-02-23T10:04:28;7.80;;;4.00;;
42134;SDS011;28312;43.460;11.810;2024-02-23T10:08:33;7.32;;;3.88;;
42134;SDS011;28312;43.460;11.810;2024-02-23T10:12:37;7.00;;;4.60;;
42134;SDS011;28312;43.460;11.810;2024-02-23T10:16:40;6.93;;;3.67;;
42134;SDS011;28312;43.460;11.810;2024-02-23T10:20:44;9.40;;;4.97;;
42134;SDS011;28312;43.460;11.810;2024-02-23T10:24:48;7.78;;;4.80;;
42134;SDS011;28312;43.460;11.810;2024-02-23T10:28:52;8.13;;;4.57;;
42134;SDS011;28312;43.460;11.810;2024-02-23T10:32:56;9.45;;;4.28;;
42134;SDS011;28312;43.460;11.810;2024-02-23T10:37:00;12.68;;;5.43;;
42134;SDS011;28312;43.460;11.810;2024-02-23T10:41:07;10.27;;;4.13;;
42134;SDS011;28312;43.460;11.810;2024-02-23T10:45:15;9.80;;;4.80;;
42134;SDS011;28312;43.460;11.810;2024-02-23T10:49:19;9.43;;;4.15;;
42134;SDS011;28312;43.460;11.810;2024-02-23T10:53:29;11.07;;;4.35;;
42134;SDS011;28312;43.460;11.810;2024-02-23T10:57:35;9.45;;;5.05;;
42134;SDS011;28312;43.460;11.810;2024-02-23T11:01:39;7.63;;;4.13;;
42134;SDS011;28312;43.460;11.810;2024-02-23T11:05:47;9.40;;;4.82;;
42134;SDS011;28312;43.460;11.810;2024-02-23T11:09:52;11.27;;;4.60;;
42134;SDS011;28312;43.460;11.810;2024-02-23T11:13:56;13.35;;;4.85;;
42134;SDS011;28312;43.460;11.810;2024-02-23T11:18:00;7.50;;;4.20;;
42134;SDS011;28312;43.460;11.810;2024-02-23T11:22:04;10.50;;;4.20;;
42134;SDS011;28312;43.460;11.810;2024-02-23T11:26:14;9.43;;;4.70;;
42134;SDS011;28312;43.460;11.810;2024-02-23T11:30:18;11.05;;;3.92;;
42134;SDS011;28312;43.460;11.810;2024-02-23T11:34:22;7.78;;;4.40;;
42134;SDS011;28312;43.460;11.810;2024-02-23T11:38:29;7.53;;;3.72;;
42134;SDS011;28312;43.460;11.810;2024-02-23T11:42:33;8.68;;;3.80;;
42134;SDS011;28312;43.460;11.810;2024-02-23T11:46:39;8.02;;;3.63;;
42134;SDS011;28312;43.460;11.810;2024-02-23T11:50:48;6.68;;;3.30;;
42134;SDS011;28312;43.460;11.810;2024-02-23T11:54:54;4.43;;;3.45;;
42134;SDS011;28312;43.460;11.810;2024-02-23T11:59:01;10.18;;;4.75;;
42134;SDS011;28312;43.460;11.810;2024-02-23T12:03:06;13.50;;;4.50;;
42134;SDS011;28312;43.460;11.810;2024-02-23T12:07:11;8.13;;;3.88;;
42134;SDS011;28312;43.460;11.810;2024-02-23T12:11:15;6.47;;;3.40;;
42134;SDS011;28312;43.460;11.810;2024-02-23T12:15:19;8.13;;;3.47;;
42134;SDS011;28312;43.460;11.810;2024-02-23T12:19:23;15.13;;;4.32;;
42134;SDS011;28312;43.460;11.810;2024-02-23T12:23:49;5.28;;;3.60;;
42134;SDS011;28312;43.460;11.810;2024-02-23T12:27:55;8.70;;;3.85;;
42134;SDS011;28312;43.460;11.810;2024-02-23T12:32:03;9.13;;;3.85;;
42134;SDS011;28312;43.460;11.810;2024-02-23T12:36:08;10.45;;;5.10;;
42134;SDS011;28312;43.460;11.810;2024-02-23T12:40:13;8.50;;;4.45;;
42134;SDS011;28312;43.460;11.810;2024-02-23T12:44:17;9.77;;;4.22;;
42134;SDS011;28312;43.460;11.810;2024-02-23T12:48:20;11.30;;;4.78;;
42134;SDS011;28312;43.460;11.810;2024-02-23T12:52:24;12.00;;;4.68;;
42134;SDS011;28312;43.460;11.810;2024-02-23T12:56:28;10.02;;;4.97;;
42134;SDS011;28312;43.460;11.810;2024-02-23T13:00:32;10.07;;;4.55;;
42134;SDS011;28312;43.460;11.810;2024-02-23T13:04:35;10.45;;;4.55;;
42134;SDS011;28312;43.460;11.810;2024-02-23T13:08:39;8.38;;;5.05;;
42134;SDS011;28312;43.460;11.810;2024-02-23T13:12:43;5.25;;;3.80;;
42134;SDS011;28312;43.460;11.810;2024-02-23T13:16:47;11.32;;;4.45;;
42134;SDS011;28312;43.460;11.810;2024-02-23T13:20:50;7.95;;;3.78;;
42134;SDS011;28312;43.460;11.810;2024-02-23T13:24:54;16.05;;;4.93;;
42134;SDS011;28312;43.460;11.810;2024-02-23T13:28:58;13.82;;;4.35;;
42134;SDS011;28312;43.460;11.810;2024-02-23T13:33:01;11.02;;;4.70;;
42134;SDS011;28312;43.460;11.810;2024-02-23T13:37:06;11.10;;;4.30;;
42134;SDS011;28312;43.460;11.810;2024-02-23T13:41:10;13.68;;;6.20;;
42134;SDS011;28312;43.460;11.810;2024-02-23T13:45:14;8.88;;;4.47;;
42134;SDS011;28312;43.460;11.810;2024-02-23T13:49:19;7.65;;;4.85;;
42134;SDS011;28312;43.460;11.810;2024-02-23T13:53:22;10.45;;;3.67;;
42134;SDS011;28312;43.460;11.810;2024-02-23T13:57:26;8.48;;;4.03;;
42134;SDS011;28312;43.460;11.810;2024-02-23T14:01:30;8.15;;;4.10;;
42134;SDS011;28312;43.460;11.810;2024-02-23T14:05:33;6.60;;;3.17;;
42134;SDS011;28312;43.460;11.810;2024-02-23T14:09:37;4.85;;;2.80;;
42134;SDS011;28312;43.460;11.810;2024-02-23T14:13:40;7.85;;;4.60;;
42134;SDS011;28312;43.460;11.810;2024-02-23T14:17:44;7.95;;;4.13;;
42134;SDS011;28312;43.460;11.810;2024-02-23T14:21:48;7.28;;;3.70;;
42134;SDS011;28312;43.460;11.810;2024-02-23T14:25:54;9.60;;;3.63;;
42134;SDS011;28312;43.460;11.810;2024-02-23T14:29:58;5.78;;;3.65;;
42134;SDS011;28312;43.460;11.810;2024-02-23T14:34:02;7.40;;;2.78;;
42134;SDS011;28312;43.460;11.810;2024-02-23T14:38:05;4.53;;;2.72;;
42134;SDS011;28312;43.460;11.810;2024-02-23T14:42:09;7.03;;;3.30;;
42134;SDS011;28312;43.460;11.810;2024-02-23T14:46:13;3.88;;;2.35;;
42134;SDS011;28312;43.460;11.810;2024-02-23T14:50:16;4.00;;;1.30;;
42134;SDS011;28312;43.460;11.810;2024-02-23T14:54:20;1.25;;;1.00;;
42134;SDS011;28312;43.460;11.810;2024-02-23T14:58:24;1.77;;;0.85;;
42134;SDS011;28312;43.460;11.810;2024-02-23T15:02:27;1.10;;;0.60;;
42134;SDS011;28312;43.460;11.810;2024-02-23T15:06:32;1.05;;;0.60;;
42134;SDS011;28312;43.460;11.810;2024-02-23T15:10:36;0.30;;;0.30;;
42134;SDS011;28312;43.460;11.810;2024-02-23T15:14:39;0.38;;;0.38;;
42134;SDS011;28312;43.460;11.810;2024-02-23T15:18:43;0.40;;;0.40;;
42134;SDS011;28312;43.460;11.810;2024-02-23T15:22:47;0.70;;;0.45;;
42134;SDS011;28312;43.460;11.810;2024-02-23T15:26:52;0.30;;;0.30;;
42134;SDS011;28312;43.460;11.810;2024-02-23T15:30:56;0.35;;;0.35;;
42134;SDS011;28312;43.460;11.810;2024-02-23T15:35:00;0.30;;;0.30;;
42134;SDS011;28312;43.460;11.810;2024-02-23T15:39:05;0.40;;;0.30;;
42134;SDS011;28312;43.460;11.810;2024-02-23T15:43:09;0.52;;;0.40;;
42134;SDS011;28312;43.460;11.810;2024-02-23T15:47:13;0.47;;;0.40;;
42134;SDS011;28312;43.460;11.810;2024-02-23T15:51:16;0.40;;;0.40;;
42134;SDS011;28312;43.460;11.810;2024-02-23T15:55:40;0.60;;;0.43;;
42134;SDS011;28312;43.460;11.810;2024-02-23T15:59:44;0.30;;;0.30;;
42134;SDS011;28312;43.460;11.810;2024-02-23T16:03:55;0.73;;;0.40;;
42134;SDS011;28312;43.460;11.810;2024-02-23T16:07:59;0.52;;;0.40;;
42134;SDS011;28312;43.460;11.810;2024-02-23T16:12:06;0.28;;;0.28;;
42134;SDS011;28312;43.460;11.810;2024-02-23T16:16:13;2.55;;;0.68;;
42134;SDS011;28312;43.460;11.810;2024-02-23T16:20:17;0.85;;;0.52;;
42134;SDS011;28312;43.460;11.810;2024-02-23T16:24:21;1.33;;;0.40;;
42134;SDS011;28312;43.460;11.810;2024-02-23T16:28:25;1.05;;;0.45;;
42134;SDS011;28312;43.460;11.810;2024-02-23T16:32:30;1.35;;;0.63;;
42134;SDS011;28312;43.460;11.810;2024-02-23T16:36:33;0.95;;;0.50;;
42134;SDS011;28312;43.460;11.810;2024-02-23T16:40:37;0.80;;;0.55;;
42134;SDS011;28312;43.460;11.810;2024-02-23T16:44:43;0.80;;;0.57;;
42134;SDS011;28312;43.460;11.810;2024-02-23T16:48:47;1.38;;;0.40;;
42134;SDS011;28312;43.460;11.810;2024-02-23T16:52:52;6.80;;;2.85;;
42134;SDS011;28312;43.460;11.810;2024-02-23T16:56:56;1.45;;;0.90;;
42134;SDS011;28312;43.460;11.810;2024-02-23T17:01:01;4.45;;;1.33;;
42134;SDS011;28312;43.460;11.810;2024-02-23T17:05:07;20.00;;;12.25;;
42134;SDS011;28312;43.460;11.810;2024-02-23T17:09:11;6.85;;;3.58;;
42134;SDS011;28312;43.460;11.810;2024-02-23T17:13:15;23.30;;;14.75;;
42134;SDS011;28312;43.460;11.810;2024-02-23T17:17:19;3.20;;;1.65;;
42134;SDS011;28312;43.460;11.810;2024-02-23T17:21:23;4.72;;;1.77;;
42134;SDS011;28312;43.460;11.810;2024-02-23T17:25:26;2.08;;;1.20;;
42134;SDS011;28312;43.460;11.810;2024-02-23T17:29:30;2.95;;;1.55;;
42134;SDS011;28312;43.460;11.810;2024-02-23T17:33:37;3.00;;;1.05;;
42134;SDS011;28312;43.460;11.810;2024-02-23T17:37:40;2.20;;;1.15;;
42134;SDS011;28312;43.460;11.810;2024-02-23T17:41:44;1.92;;;1.20;;
42134;SDS011;28312;43.460;11.810;2024-02-23T17:45:51;5.18;;;1.63;;
42134;SDS011;28312;43.460;11.810;2024-02-23T17:49:55;3.55;;;1.10;;
42134;SDS011;28312;43.460;11.810;2024-02-23T17:54:00;2.33;;;0.98;;
42134;SDS011;28312;43.460;11.810;2024-02-23T17:58:04;3.80;;;2.15;;
42134;SDS011;28312;43.460;11.810;2024-02-23T18:02:21;4.38;;;2.60;;
42134;SDS011;28312;43.460;11.810;2024-02-23T18:06:26;1.77;;;1.15;;
42134;SDS011;28312;43.460;11.810;2024-02-23T18:10:29;2.97;;;1.65;;
42134;SDS011;28312;43.460;11.810;2024-02-23T18:14:36;4.13;;;1.95;;
42134;SDS011;28312;43.460;11.810;2024-02-23T18:18:40;2.17;;;1.10;;
42134;SDS011;28312;43.460;11.810;2024-02-23T18:22:45;3.25;;;1.23;;
42134;SDS011;28312;43.460;11.810;2024-02-23T18:26:51;1.75;;;0.95;;
42134;SDS011;28312;43.460;11.810;2024-02-23T18:30:56;2.13;;;1.15;;
42134;SDS011;28312;43.460;11.810;2024-02-23T18:35:01;1.65;;;1.15;;
42134;SDS011;28312;43.460;11.810;2024-02-23T18:39:07;2.33;;;1.30;;
42134;SDS011;28312;43.460;11.810;2024-02-23T18:43:14;7.25;;;4.00;;
42134;SDS011;28312;43.460;11.810;2024-02-23T18:47:20;5.78;;;3.75;;
42134;SDS011;28312;43.460;11.810;2024-02-23T18:51:25;3.10;;;2.28;;
42134;SDS011;28312;43.460;11.810;2024-02-23T18:55:32;3.88;;;1.90;;
42134;SDS011;28312;43.460;11.810;2024-02-23T18:59:41;3.45;;;1.80;;
42134;SDS011;28312;43.460;11.810;2024-02-23T19:03:45;4.65;;;2.72;;
42134;SDS011;28312;43.460;11.810;2024-02-23T19:07:49;6.07;;;3.63;;
42134;SDS011;28312;43.460;11.810;2024-02-23T19:11:54;6.35;;;3.55;;
42134;SDS011;28312;43.460;11.810;2024-02-23T19:15:58;8.45;;;4.13;;
42134;SDS011;28312;43.460;11.810;2024-02-23T19:20:04;6.00;;;2.67;;
42134;SDS011;28312;43.460;11.810;2024-02-23T19:24:13;4.45;;;2.63;;
42134;SDS011;28312;43.460;11.810;2024-02-23T19:28:18;13.43;;;7.40;;
42134;SDS011;28312;43.460;11.810;2024-02-23T19:32:21;7.38;;;5.00;;
42134;SDS011;28312;43.460;11.810;2024-02-23T19:36:26;7.07;;;4.60;;
42134;SDS011;28312;43.460;11.810;2024-02-23T19:40:30;7.22;;;4.10;;
42134;SDS011;28312;43.460;11.810;2024-02-23T19:44:34;7.78;;;3.72;;
42134;SDS011;28312;43.460;11.810;2024-02-23T19:48:37;5.82;;;3.45;;
42134;SDS011;28312;43.460;11.810;2024-02-23T19:52:41;5.07;;;2.78;;
42134;SDS011;28312;43.460;11.810;2024-02-23T19:56:44;5.82;;;3.10;;
42134;SDS011;28312;43.460;11.810;2024-02-23T20:00:48;5.65;;;2.28;;
42134;SDS011;28312;43.460;11.810;2024-02-23T20:04:51;3.35;;;2.40;;
42134;SDS011;28312;43.460;11.810;2024-02-23T20:08:58;4.75;;;2.45;;
42134;SDS011;28312;43.460;11.810;2024-02-23T20:13:02;4.20;;;3.00;;
42134;SDS011;28312;43.460;11.810;2024-02-23T20:17:06;6.78;;;4.53;;
42134;SDS011;28312;43.460;11.810;2024-02-23T20:21:11;4.80;;;2.63;;
42134;SDS011;28312;43.460;11.810;2024-02-23T20:25:15;3.10;;;2.30;;
42134;SDS011;28312;43.460;11.810;2024-02-23T20:29:19;4.55;;;3.10;;
42134;SDS011;28312;43.460;11.810;2024-02-23T20:33:23;7.35;;;3.60;;
42134;SDS011;28312;43.460;11.810;2024-02-23T20:37:28;4.90;;;2.78;;
42134;SDS011;28312;43.460;11.810;2024-02-23T20:41:32;7.72;;;4.30;;
42134;SDS011;28312;43.460;11.810;2024-02-23T20:45:37;8.05;;;3.17;;
42134;SDS011;28312;43.460;11.810;2024-02-23T20:49:40;3.63;;;2.00;;
42134;SDS011;28312;43.460;11.810;2024-02-23T20:53:47;6.00;;;2.60;;
42134;SDS011;28312;43.460;11.810;2024-02-23T20:57:50;3.30;;;2.38;;
42134;SDS011;28312;43.460;11.810;2024-02-23T21:01:58;4.60;;;2.88;;
42134;SDS011;28312;43.460;11.810;2024-02-23T21:06:01;8.63;;;7.35;;
42134;SDS011;28312;43.460;11.810;2024-02-23T21:10:10;4.90;;;2.80;;
42134;SDS011;28312;43.460;11.810;2024-02-23T21:14:14;4.78;;;3.00;;
42134;SDS011;28312;43.460;11.810;2024-02-23T21:18:19;6.72;;;3.78;;
42134;SDS011;28312;43.460;11.810;2024-02-23T21:22:23;8.90;;;4.70;;
42134;SDS011;28312;43.460;11.810;2024-02-23T21:26:28;6.38;;;3.60;;
42134;SDS011;28312;43.460;11.810;2024-02-23T21:30:32;8.10;;;4.60;;
42134;SDS011;28312;43.460;11.810;2024-02-23T21:34:37;7.80;;;4.13;;
42134;SDS011;28312;43.460;11.810;2024-02-23T21:38:42;10.02;;;5.18;;
42134;SDS011;28312;43.460;11.810;2024-02-23T21:42:45;8.13;;;4.10;;
42134;SDS011;28312;43.460;11.810;2024-02-23T21:46:50;4.78;;;3.55;;
42134;SDS011;28312;43.460;11.810;2024-02-23T21:50:54;5.85;;;3.78;;
42134;SDS011;28312;43.460;11.810;2024-02-23T21:54:58;5.53;;;3.17;;
42134;SDS011;28312;43.460;11.810;2024-02-23T21:59:02;9.45;;;4.28;;
42134;SDS011;28312;43.460;11.810;2024-02-23T22:03:06;5.95;;;3.25;;
42134;SDS011;28312;43.460;11.810;2024-02-23T22:07:11;4.88;;;2.90;;
42134;SDS011;28312;43.460;11.810;2024-02-23T22:11:16;6.00;;;3.38;;
42134;SDS011;28312;43.460;11.810;2024-02-23T22:15:20;4.53;;;3.05;;
42134;SDS011;28312;43.460;11.810;2024-02-23T22:19:24;6.50;;;2.75;;
42134;SDS011;28312;43.460;11.810;2024-02-23T22:23:29;4.60;;;2.47;;
42134;SDS011;28312;43.460;11.810;2024-02-23T22:27:33;6.78;;;3.60;;
42134;SDS011;28312;43.460;11.810;2024-02-23T22:31:43;6.10;;;2.78;;
42134;SDS011;28312;43.460;11.810;2024-02-23T22:35:49;5.78;;;4.22;;
42134;SDS011;28312;43.460;11.810;2024-02-23T22:39:53;6.10;;;3.47;;
42134;SDS011;28312;43.460;11.810;2024-02-23T22:43:59;4.93;;;3.33;;
42134;SDS011;28312;43.460;11.810;2024-02-23T22:48:05;5.97;;;3.73;;
42134;SDS011;28312;43.460;11.810;2024-02-23T22:52:10;5.32;;;3.33;;
42134;SDS011;28312;43.460;11.810;2024-02-23T22:56:15;6.35;;;3.50;;
42134;SDS011;28312;43.460;11.810;2024-02-23T23:00:19;5.43;;;2.83;;
42134;SDS011;28312;43.460;11.810;2024-02-23T23:04:24;4.18;;;2.40;;
42134;SDS011;28312;43.460;11.810;2024-02-23T23:08:31;6.55;;;3.10;;
42134;SDS011;28312;43.460;11.810;2024-02-23T23:12:36;6.22;;;2.70;;
42134;SDS011;28312;43.460;11.810;2024-02-23T23:16:39;9.35;;;3.45;;
42134;SDS011;28312;43.460;11.810;2024-02-23T23:20:43;4.50;;;2.50;;
42134;SDS011;28312;43.460;11.810;2024-02-23T23:24:48;3.95;;;2.38;;
42134;SDS011;28312;43.460;11.810;2024-02-23T23:28:52;3.03;;;1.83;;
42134;SDS011;28312;43.460;11.810;2024-02-23T23:32:57;3.33;;;2.45;;
42134;SDS011;28312;43.460;11.810;2024-02-23T23:37:01;7.15;;;3.00;;
42134;SDS011;28312;43.460;11.810;2024-02-23T23:41:06;3.53;;;2.10;;
42134;SDS011;28312;43.460;11.810;2024-02-23T23:45:10;3.30;;;2.20;;
42134;SDS011;28312;43.460;11.810;2024-02-23T23:49:14;4.50;;;2.00;;
42134;SDS011;28312;43.460;11.810;2024-02-23T23:53:17;3.63;;;2.20;;
42134;SDS011;28312;43.460;11.810;2024-02-23T23:57:22;4.43;;;1.98;;
